createdAt,value
2023-03-31T14:48:12.278Z,19.00
2023-03-31T14:49:12.985Z,19.07
2023-03-31T14:50:12.980Z,19.13
2023-03-31T14:51:12.971Z,19.17
2023-03-31T14:52:12.962Z,19.22
2023-03-31T14:53:13.086Z,19.24
2023-03-31T14:54:12.946Z,19.30
2023-03-31T14:55:12.938Z,19.32
2023-03-31T14:56:12.938Z,19.37
2023-03-31T14:57:12.965Z,19.39
2023-03-31T14:58:12.916Z,19.44
2023-03-31T14:59:12.946Z,19.47
2023-03-31T15:00:12.905Z,19.50
2023-03-31T15:01:12.916Z,19.53
2023-03-31T15:02:12.882Z,19.56
2023-03-31T15:03:12.936Z,19.57
2023-03-31T15:04:12.864Z,19.60
2023-03-31T15:05:12.898Z,19.67
2023-03-31T15:06:12.853Z,19.68
2023-03-31T15:07:12.856Z,19.71
2023-03-31T15:08:12.830Z,19.75
2023-03-31T15:09:12.830Z,19.78
2023-03-31T15:10:12.813Z,19.79
2023-03-31T15:11:13.844Z,19.84
2023-03-31T15:12:12.799Z,19.86
2023-03-31T15:13:12.800Z,19.87
2023-03-31T15:14:12.784Z,19.90
2023-03-31T15:15:12.776Z,19.92
2023-03-31T15:16:12.814Z,19.94
2023-03-31T15:17:12.760Z,19.97
2023-03-31T15:18:12.899Z,20.00
2023-03-31T15:19:12.758Z,20.02
2023-03-31T15:20:12.955Z,20.07
2023-03-31T15:21:12.733Z,20.07
2023-03-31T15:22:12.719Z,20.08
2023-03-31T15:23:12.711Z,20.09
2023-03-31T15:24:12.757Z,20.11
2023-03-31T15:25:12.702Z,20.14
2023-03-31T15:26:12.690Z,20.14
2023-03-31T15:27:13.654Z,20.17
2023-03-31T15:28:12.671Z,20.17
2023-03-31T15:29:12.661Z,20.19
2023-03-31T15:30:12.701Z,20.19
2023-03-31T15:31:12.783Z,20.23
2023-03-31T15:32:12.770Z,20.23
2023-03-31T15:33:18.874Z,20.26
2023-03-31T15:34:12.678Z,20.29
2023-03-31T15:35:21.668Z,20.27
2023-03-31T15:36:12.763Z,20.29
2023-03-31T15:37:12.590Z,20.30
2023-03-31T15:38:12.589Z,20.32
2023-03-31T15:39:12.574Z,20.32
2023-03-31T15:40:12.568Z,20.33
2023-03-31T15:41:12.616Z,20.36
2023-03-31T15:42:12.708Z,20.36
2023-03-31T15:43:20.273Z,20.37
2023-03-31T15:44:12.536Z,20.36
2023-03-31T15:45:12.522Z,20.36
2023-03-31T15:46:12.549Z,20.36
2023-03-31T15:47:12.505Z,20.37
2023-03-31T15:48:12.517Z,20.39
2023-03-31T15:49:12.492Z,20.39
2023-03-31T15:50:12.488Z,20.41
2023-03-31T15:51:12.470Z,20.39
2023-03-31T15:52:12.464Z,20.39
2023-03-31T15:53:12.460Z,20.39
2023-03-31T15:54:12.472Z,20.41
2023-03-31T15:55:12.444Z,20.41
2023-03-31T15:56:12.427Z,20.41
2023-03-31T15:57:12.433Z,20.41
2023-03-31T15:58:12.416Z,20.41
2023-03-31T15:59:12.407Z,20.39
2023-03-31T16:00:12.523Z,20.41
2023-03-31T16:01:12.405Z,20.39
2023-03-31T16:02:12.387Z,20.41
2023-03-31T16:03:12.371Z,20.41
2023-03-31T16:04:12.372Z,20.39
2023-03-31T16:05:26.178Z,20.41
2023-03-31T16:06:12.460Z,20.41
2023-03-31T16:07:12.341Z,20.39
2023-03-31T16:08:12.338Z,20.39
2023-03-31T16:09:12.323Z,20.41
2023-03-31T16:10:12.319Z,20.41
2023-03-31T16:11:12.308Z,20.39
2023-03-31T16:12:12.311Z,20.41
2023-03-31T16:13:12.305Z,20.42
2023-03-31T16:14:12.285Z,20.42
2023-03-31T16:15:12.429Z,20.42
2023-03-31T16:16:12.350Z,20.41
2023-03-31T16:17:12.289Z,20.41
2023-03-31T16:18:12.355Z,20.41
2023-03-31T16:19:12.250Z,20.41
2023-03-31T16:20:12.239Z,20.42
2023-03-31T16:21:12.267Z,20.42
2023-03-31T16:22:12.219Z,20.42
2023-03-31T16:23:12.211Z,20.42
2023-03-31T16:24:12.202Z,20.42
2023-03-31T16:25:12.195Z,20.42
2023-03-31T16:26:12.190Z,20.44
2023-03-31T16:27:12.244Z,20.42
2023-03-31T16:28:12.175Z,20.44
2023-03-31T16:29:12.175Z,20.42
2023-03-31T16:30:12.165Z,20.44
2023-03-31T16:31:12.163Z,20.42
2023-03-31T16:32:12.161Z,20.42
2023-03-31T16:33:12.202Z,20.42
2023-03-31T16:34:12.127Z,20.42
2023-03-31T16:35:12.114Z,20.42
2023-03-31T16:36:12.227Z,20.42
2023-03-31T16:37:12.098Z,20.42
2023-03-31T16:38:12.097Z,20.42
2023-03-31T16:39:12.125Z,20.42
2023-03-31T16:40:12.076Z,20.42
2023-03-31T16:41:12.191Z,20.42
2023-03-31T16:42:12.056Z,20.44
2023-03-31T16:43:12.074Z,20.42
2023-03-31T16:44:12.041Z,20.44
2023-03-31T16:45:14.670Z,20.44
2023-03-31T16:46:12.090Z,20.42
2023-03-31T16:47:17.564Z,20.44
2023-03-31T16:48:16.245Z,20.42
2023-03-31T16:49:12.004Z,20.44
2023-03-31T16:50:12.015Z,20.42
2023-03-31T16:51:11.996Z,20.44
2023-03-31T16:52:11.975Z,20.44
2023-03-31T16:53:11.969Z,20.44
2023-03-31T16:54:11.959Z,20.44
2023-03-31T16:55:11.952Z,20.44
2023-03-31T16:56:11.996Z,20.44
2023-03-31T16:57:11.990Z,20.44
2023-03-31T16:58:11.960Z,20.48
2023-03-31T16:59:11.919Z,20.48
2023-03-31T17:00:11.930Z,20.46
2023-03-31T17:01:11.915Z,20.44
2023-03-31T17:02:11.941Z,20.46
2023-03-31T17:03:11.991Z,20.46
2023-03-31T17:04:11.889Z,20.48
2023-03-31T17:05:13.497Z,20.46
2023-03-31T17:06:11.918Z,20.48
2023-03-31T17:07:11.859Z,20.48
2023-03-31T17:08:11.923Z,20.48
2023-03-31T17:09:11.841Z,20.46
2023-03-31T17:10:11.838Z,20.48
2023-03-31T17:11:11.825Z,20.49
2023-03-31T17:12:11.815Z,20.50
2023-03-31T17:13:11.807Z,20.49
2023-03-31T17:14:11.940Z,20.48
2023-03-31T17:15:11.802Z,20.49
2023-03-31T17:16:18.348Z,20.49
2023-03-31T17:17:11.846Z,20.50
2023-03-31T17:18:11.852Z,20.49
2023-03-31T17:19:11.760Z,20.50
2023-03-31T17:20:11.794Z,20.49
2023-03-31T17:21:11.751Z,20.50
2023-03-31T17:22:11.733Z,20.52
2023-03-31T17:23:11.724Z,20.49
2023-03-31T17:24:11.715Z,20.52
2023-03-31T17:25:11.710Z,20.50
2023-03-31T17:26:11.755Z,20.50
2023-03-31T17:27:11.690Z,20.50
2023-03-31T17:28:11.681Z,20.50
2023-03-31T17:29:13.401Z,20.50
2023-03-31T17:30:11.690Z,20.53
2023-03-31T17:31:11.654Z,20.52
2023-03-31T17:32:11.799Z,20.52
2023-03-31T17:33:11.763Z,20.50
2023-03-31T17:34:11.637Z,20.52
2023-03-31T17:35:11.643Z,20.52
2023-03-31T17:36:11.635Z,20.52
2023-03-31T17:37:11.639Z,20.52
2023-03-31T17:38:11.629Z,20.52
2023-03-31T17:39:11.594Z,20.52
2023-03-31T17:40:11.588Z,20.52
2023-03-31T17:41:11.575Z,20.52
2023-03-31T17:42:11.571Z,20.50
2023-03-31T17:43:11.560Z,20.52
2023-03-31T17:44:11.711Z,20.50
2023-03-31T17:45:11.559Z,20.52
2023-03-31T17:46:12.728Z,20.52
2023-03-31T17:47:11.540Z,20.50
2023-03-31T17:48:11.518Z,20.49
2023-03-31T17:49:11.510Z,20.50
2023-03-31T17:50:11.567Z,20.50
2023-03-31T17:51:11.494Z,20.50
2023-03-31T17:52:11.491Z,20.50
2023-03-31T17:53:11.478Z,20.50
2023-03-31T17:54:11.492Z,20.50
2023-03-31T17:55:11.469Z,20.50
2023-03-31T17:56:11.523Z,20.49
2023-03-31T17:57:11.507Z,20.50
2023-03-31T17:58:11.540Z,20.49
2023-03-31T17:59:11.437Z,20.50
2023-03-31T18:00:11.415Z,20.49
2023-03-31T18:01:11.462Z,20.49
2023-03-31T18:02:11.534Z,20.49
2023-03-31T18:03:11.392Z,20.50
2023-03-31T18:04:11.381Z,20.48
2023-03-31T18:05:11.531Z,20.49
2023-03-31T18:06:11.538Z,20.48
2023-03-31T18:07:11.383Z,20.49
2023-03-31T18:08:11.608Z,20.49
2023-03-31T18:09:11.384Z,20.49
2023-03-31T18:10:11.338Z,20.49
2023-03-31T18:11:11.504Z,20.48
2023-03-31T18:12:11.377Z,20.46
2023-03-31T18:13:11.315Z,20.49
2023-03-31T18:14:11.435Z,20.49
2023-03-31T18:15:11.313Z,20.46
2023-03-31T18:16:11.336Z,20.46
2023-03-31T18:17:11.277Z,20.46
2023-03-31T18:18:11.318Z,20.48
2023-03-31T18:19:11.272Z,20.48
2023-03-31T18:20:11.286Z,20.46
2023-03-31T18:21:11.256Z,20.46
2023-03-31T18:22:11.243Z,20.46
2023-03-31T18:23:11.233Z,20.46
2023-03-31T18:24:11.226Z,20.44
2023-03-31T18:25:11.270Z,20.46
2023-03-31T18:26:11.351Z,20.46
2023-03-31T18:27:11.197Z,20.44
2023-03-31T18:28:11.192Z,20.44
2023-03-31T18:29:11.181Z,20.44
2023-03-31T18:30:11.181Z,20.44
2023-03-31T18:31:11.192Z,20.44
2023-03-31T18:32:11.321Z,20.42
2023-03-31T18:33:11.262Z,20.42
2023-03-31T18:34:11.142Z,20.42
2023-03-31T18:35:11.145Z,20.42
2023-03-31T18:36:11.209Z,20.42
2023-03-31T18:37:11.202Z,20.42
2023-03-31T18:38:11.227Z,20.42
2023-03-31T18:39:11.100Z,20.42
2023-03-31T18:40:11.113Z,20.42
2023-03-31T18:41:11.092Z,20.44
2023-03-31T18:42:11.084Z,20.41
2023-03-31T18:43:11.075Z,20.42
2023-03-31T18:44:11.190Z,20.42
2023-03-31T18:45:11.072Z,20.42
2023-03-31T18:46:11.046Z,20.42
2023-03-31T18:47:11.116Z,20.41
2023-03-31T18:48:11.070Z,20.42
2023-03-31T18:49:11.043Z,20.41
2023-03-31T18:50:11.058Z,20.41
2023-03-31T18:51:11.010Z,20.41
2023-03-31T18:52:10.999Z,20.41
2023-03-31T18:53:11.029Z,20.41
2023-03-31T18:54:10.980Z,20.41
2023-03-31T18:55:10.977Z,20.41
2023-03-31T18:56:11.016Z,20.41
2023-03-31T18:57:11.009Z,20.41
2023-03-31T18:58:10.960Z,20.41
2023-03-31T18:59:10.944Z,20.41
2023-03-31T19:00:10.937Z,20.41
2023-03-31T19:01:11.081Z,20.42
2023-03-31T19:02:11.077Z,20.42
2023-03-31T19:03:10.961Z,20.44
2023-03-31T19:04:10.911Z,20.42
2023-03-31T19:05:10.896Z,20.41
2023-03-31T19:06:10.888Z,20.42
2023-03-31T19:07:10.880Z,20.39
2023-03-31T19:08:11.005Z,20.41
2023-03-31T19:09:10.868Z,20.41
2023-03-31T19:10:10.892Z,20.39
2023-03-31T19:11:10.855Z,20.41
2023-03-31T19:12:10.848Z,20.41
2023-03-31T19:13:10.847Z,20.41
2023-03-31T19:14:10.876Z,20.41
2023-03-31T19:15:10.827Z,20.41
2023-03-31T19:16:10.886Z,20.39
2023-03-31T19:17:10.801Z,20.41
2023-03-31T19:18:10.814Z,20.41
2023-03-31T19:19:10.784Z,20.39
2023-03-31T19:20:10.828Z,20.41
2023-03-31T19:21:10.766Z,20.39
2023-03-31T19:22:10.774Z,20.41
2023-03-31T19:23:10.753Z,20.39
2023-03-31T19:24:10.746Z,20.39
2023-03-31T19:25:10.735Z,20.39
2023-03-31T19:26:10.796Z,20.39
2023-03-31T19:27:10.724Z,20.37
2023-03-31T19:28:10.712Z,20.37
2023-03-31T19:29:10.704Z,20.39
2023-03-31T19:30:10.699Z,20.37
2023-03-31T19:31:10.687Z,20.39
2023-03-31T19:32:10.891Z,20.37
2023-03-31T19:33:10.720Z,20.39
2023-03-31T19:34:10.674Z,20.37
2023-03-31T19:35:10.657Z,20.37
2023-03-31T19:36:10.681Z,20.37
2023-03-31T19:37:10.637Z,20.39
2023-03-31T19:38:10.779Z,20.39
2023-03-31T19:39:10.623Z,20.37
2023-03-31T19:40:10.615Z,20.37
2023-03-31T19:41:10.609Z,20.37
2023-03-31T19:42:10.608Z,20.37
2023-03-31T19:43:10.596Z,20.37
2023-03-31T19:44:10.630Z,20.37
2023-03-31T19:45:10.577Z,20.37
2023-03-31T19:46:10.648Z,20.39
2023-03-31T19:47:10.553Z,20.36
2023-03-31T19:48:10.555Z,20.37
2023-03-31T19:49:10.549Z,20.39
2023-03-31T19:50:10.753Z,20.37
2023-03-31T19:51:10.525Z,20.36
2023-03-31T19:52:10.515Z,20.36
2023-03-31T19:53:10.512Z,20.36
2023-03-31T19:54:10.494Z,20.37
2023-03-31T19:55:10.491Z,20.37
2023-03-31T19:56:10.531Z,20.37
2023-03-31T19:57:10.524Z,20.37
2023-03-31T19:58:10.470Z,20.37
2023-03-31T19:59:10.450Z,20.37
2023-03-31T20:00:10.447Z,20.37
2023-03-31T20:01:10.492Z,20.37
2023-03-31T20:02:10.510Z,20.37
2023-03-31T20:03:10.637Z,20.37
2023-03-31T20:04:10.481Z,20.37
2023-03-31T20:05:10.403Z,20.37
2023-03-31T20:06:10.394Z,20.36
2023-03-31T20:07:10.391Z,20.36
2023-03-31T20:08:10.903Z,20.37
2023-03-31T20:09:10.371Z,20.37
2023-03-31T20:10:10.365Z,20.37
2023-03-31T20:11:10.462Z,20.37
2023-03-31T20:12:10.344Z,20.37
2023-03-31T20:13:10.342Z,20.36
2023-03-31T20:14:10.471Z,20.36
2023-03-31T20:15:10.322Z,20.37
2023-03-31T20:16:10.321Z,20.36
2023-03-31T20:17:10.311Z,20.37
2023-03-31T20:18:10.328Z,20.36
2023-03-31T20:19:10.287Z,20.36
2023-03-31T20:20:10.529Z,20.36
2023-03-31T20:21:10.275Z,20.36
2023-03-31T20:22:10.261Z,20.36
2023-03-31T20:23:10.257Z,20.37
2023-03-31T20:24:10.255Z,20.37
2023-03-31T20:25:10.236Z,20.36
2023-03-31T20:26:10.293Z,20.36
2023-03-31T20:27:10.222Z,20.34
2023-03-31T20:28:10.212Z,20.36
2023-03-31T20:29:10.204Z,20.36
2023-03-31T20:30:10.196Z,20.37
2023-03-31T20:31:10.217Z,20.36
2023-03-31T20:32:10.313Z,20.37
2023-03-31T20:33:10.168Z,20.36
2023-03-31T20:34:10.164Z,20.36
2023-03-31T20:35:10.159Z,20.36
2023-03-31T20:36:10.195Z,20.37
2023-03-31T20:37:10.142Z,20.36
2023-03-31T20:38:10.175Z,20.36
2023-03-31T20:39:10.125Z,20.34
2023-03-31T20:40:10.124Z,20.36
2023-03-31T20:41:10.103Z,20.36
2023-03-31T20:42:10.097Z,20.34
2023-03-31T20:43:10.091Z,20.34
2023-03-31T20:44:12.039Z,20.34
2023-03-31T20:45:10.071Z,20.33
2023-03-31T20:46:10.109Z,20.36
2023-03-31T20:47:10.060Z,20.34
2023-03-31T20:48:10.048Z,20.34
2023-03-31T20:49:10.040Z,20.36
2023-03-31T20:50:10.088Z,20.34
2023-03-31T20:51:10.025Z,20.34
2023-03-31T20:52:10.024Z,20.36
2023-03-31T20:53:10.006Z,20.34
2023-03-31T20:54:10.024Z,20.34
2023-03-31T20:55:10.002Z,20.34
2023-03-31T20:56:10.120Z,20.34
2023-03-31T20:57:10.030Z,20.34
2023-03-31T20:58:09.970Z,20.34
2023-03-31T20:59:09.980Z,20.34
2023-03-31T21:00:09.958Z,20.34
2023-03-31T21:01:09.996Z,20.36
2023-03-31T21:02:10.056Z,20.34
2023-03-31T21:03:09.956Z,20.34
2023-03-31T21:04:10.123Z,20.36
2023-03-31T21:05:09.912Z,20.36
2023-03-31T21:06:11.564Z,20.34
2023-03-31T21:07:09.890Z,20.34
2023-03-31T21:08:09.891Z,20.34
2023-03-31T21:09:09.878Z,20.33
2023-03-31T21:10:09.872Z,20.34
2023-03-31T21:11:09.879Z,20.34
2023-03-31T21:12:10.018Z,20.34
2023-03-31T21:13:09.843Z,20.33
2023-03-31T21:14:09.834Z,20.34
2023-03-31T21:15:09.829Z,20.34
2023-03-31T21:16:09.853Z,20.33
2023-03-31T21:17:09.857Z,20.33
2023-03-31T21:18:09.935Z,20.33
2023-03-31T21:19:09.793Z,20.34
2023-03-31T21:20:09.804Z,20.34
2023-03-31T21:21:09.780Z,20.32
2023-03-31T21:22:09.772Z,20.33
2023-03-31T21:23:09.760Z,20.33
2023-03-31T21:24:09.802Z,20.34
2023-03-31T21:25:09.746Z,20.33
2023-03-31T21:26:09.738Z,20.33
2023-03-31T21:27:09.726Z,20.36
